Time;durP1;ratioP1;P1;durP2;ratioP2;P2;SDS_P1;SDS_P2;PMS_P1;PMS_P2;Temp;Humidity;BMP_temperature;BMP_pressure;BME280_temperature;BME280_humidity;BME280_pressure;Samples;Min_cycle;Max_cycle;Signal;HPM_P1;HPM_P2
2021/01/20 00:01:39;;;;;;;;;;;19.10;55.30;;;;;;5071757;28;1656;-67
2021/01/20 00:04:05;;;;;;;;;;;19.10;55.30;;;;;;5071595;28;1436;-67
2021/01/20 00:06:30;;;;;;;;;;;19.10;55.30;;;;;;5073129;28;1957;-67
2021/01/20 00:08:55;;;;;;;;;;;19.10;55.30;;;;;;5076115;28;1692;-67
2021/01/20 00:11:21;;;;;;;;;;;19.10;55.30;;;;;;5075941;28;1463;-67
2021/01/20 00:13:46;;;;;;;;;;;19.00;55.30;;;;;;5078400;28;1508;-66
2021/01/20 00:16:12;;;;;;;;;;;19.10;55.40;;;;;;5095752;28;1645;-67
2021/01/20 00:18:37;;;;;;;;;;;19.10;55.40;;;;;;5096011;28;1639;-66
2021/01/20 00:21:03;;;;;;;;;;;19.10;55.40;;;;;;5095882;28;1658;-67
2021/01/20 00:23:28;;;;;;;;;;;19.10;55.40;;;;;;5095808;28;1686;-67
2021/01/20 00:25:54;;;;;;;;;;;19.10;55.40;;;;;;5095629;28;1951;-67
2021/01/20 00:28:19;;;;;;;;;;;19.00;55.40;;;;;;5095921;28;2280;-67
2021/01/20 00:30:45;;;;;;;;;;;19.00;55.40;;;;;;5095712;28;1670;-66
2021/01/20 00:33:12;;;;;;;;;;;19.00;56.00;;;;;;5095764;28;1367;-67
2021/01/20 00:35:37;;;;;;;;;;;19.00;55.40;;;;;;5095340;28;1570;-67
2021/01/20 00:38:03;;;;;;;;;;;19.00;55.50;;;;;;5077546;28;1600;-66
2021/01/20 00:40:28;;;;;;;;;;;19.00;55.40;;;;;;5077416;28;1610;-67
2021/01/20 00:42:54;;;;;;;;;;;19.00;55.50;;;;;;5095585;28;1376;-67
2021/01/20 00:45:19;;;;;;;;;;;19.00;55.50;;;;;;5095089;28;1967;-67
2021/01/20 00:47:45;;;;;;;;;;;19.00;55.50;;;;;;5075279;28;1532;-67
2021/01/20 00:50:11;;;;;;;;;;;19.00;55.50;;;;;;5075106;28;1430;-67
2021/01/20 00:52:36;;;;;;;;;;;19.00;55.50;;;;;;5074969;28;1774;-67
2021/01/20 00:55:03;;;;;;;;;;;19.00;55.50;;;;;;5074822;28;1677;-67
2021/01/20 00:57:28;;;;;;;;;;;19.00;55.60;;;;;;5069213;28;1716;-67
2021/01/20 00:59:53;;;;;;;;;;;19.00;55.50;;;;;;5067205;28;1558;-67
2021/01/20 01:02:19;;;;;;;;;;;19.00;55.60;;;;;;5074859;28;1350;-67
2021/01/20 01:04:44;;;;;;;;;;;19.00;55.60;;;;;;5074624;28;1330;-67
2021/01/20 01:07:10;;;;;;;;;;;19.00;55.60;;;;;;5074599;28;1906;-67
2021/01/20 01:09:36;;;;;;;;;;;19.00;55.60;;;;;;5075001;28;1658;-67
2021/01/20 01:12:02;;;;;;;;;;;19.00;55.70;;;;;;5074803;28;1569;-67
2021/01/20 01:14:28;;;;;;;;;;;19.00;55.60;;;;;;5081957;28;1358;-67
2021/01/20 01:16:53;;;;;;;;;;;19.00;55.70;;;;;;5094640;28;1371;-66
2021/01/20 01:19:18;;;;;;;;;;;19.00;55.70;;;;;;5093846;28;1653;-67
2021/01/20 01:21:44;;;;;;;;;;;18.90;55.60;;;;;;5094858;28;1412;-67
2021/01/20 01:24:09;;;;;;;;;;;18.90;55.60;;;;;;5094550;28;1223;-67
2021/01/20 01:26:35;;;;;;;;;;;19.00;55.70;;;;;;5094636;28;1957;-67
2021/01/20 01:29:00;;;;;;;;;;;19.00;55.70;;;;;;5076556;28;1674;-67
2021/01/20 01:31:26;;;;;;;;;;;18.90;55.60;;;;;;5094310;28;1656;-67
2021/01/20 01:33:51;;;;;;;;;;;18.90;55.70;;;;;;5094393;28;1351;-66
2021/01/20 01:36:17;;;;;;;;;;;18.90;55.70;;;;;;5094235;28;1583;-66
2021/01/20 01:38:42;;;;;;;;;;;18.90;55.70;;;;;;5094564;28;1563;-67
2021/01/20 01:41:07;;;;;;;;;;;18.90;55.70;;;;;;5059433;28;2915;-67
2021/01/20 01:43:33;;;;;;;;;;;18.90;55.80;;;;;;5079290;28;1511;-67
2021/01/20 01:45:58;;;;;;;;;;;18.90;55.80;;;;;;5071517;28;1901;-67
2021/01/20 01:48:24;;;;;;;;;;;18.90;55.80;;;;;;5065905;28;1466;-67
2021/01/20 01:50:49;;;;;;;;;;;18.90;55.80;;;;;;5074008;28;1663;-67
2021/01/20 01:53:15;;;;;;;;;;;18.90;55.80;;;;;;5085243;28;1519;-66
2021/01/20 01:55:40;;;;;;;;;;;18.90;55.80;;;;;;5075503;28;1624;-67
2021/01/20 01:58:06;;;;;;;;;;;18.90;55.80;;;;;;5065795;28;1634;-67
2021/01/20 02:00:32;;;;;;;;;;;18.90;55.80;;;;;;5057021;28;1603;-67
2021/01/20 02:02:57;;;;;;;;;;;18.90;55.90;;;;;;5056736;28;1428;-67
2021/01/20 02:05:23;;;;;;;;;;;18.90;55.90;;;;;;5074575;28;1968;-67
2021/01/20 02:07:48;;;;;;;;;;;18.90;55.90;;;;;;5053554;28;1440;-67
2021/01/20 02:10:14;;;;;;;;;;;18.90;55.80;;;;;;5050542;28;1492;-67
2021/01/20 02:12:58;;;;;;;;;;;18.90;55.90;;;;;;5067206;28;1397;-66
2021/01/20 02:15:35;;;;;;;;;;;18.90;55.90;;;;;;5069808;28;1517;-68
2021/01/20 02:18:02;;;;;;;;;;;18.90;55.90;;;;;;5046634;28;1259;-67
2021/01/20 02:20:31;;;;;;;;;;;18.90;55.90;;;;;;5049894;28;1527;-68
2021/01/20 02:23:06;;;;;;;;;;;18.90;55.90;;;;;;5062833;28;1204;-68
2021/01/20 02:25:32;;;;;;;;;;;18.80;55.90;;;;;;5063403;28;1993;-67
2021/01/20 02:28:08;;;;;;;;;;;18.80;55.90;;;;;;5068209;28;1373;-67
2021/01/20 02:30:34;;;;;;;;;;;18.80;55.90;;;;;;5049367;28;1200;-67
2021/01/20 02:33:00;;;;;;;;;;;18.80;55.90;;;;;;5090758;28;1657;-67
2021/01/20 02:35:25;;;;;;;;;;;18.80;56.00;;;;;;5058747;28;1507;-67
2021/01/20 02:37:51;;;;;;;;;;;18.80;55.90;;;;;;5059313;28;1715;-67
2021/01/20 02:40:16;;;;;;;;;;;18.80;55.90;;;;;;5076380;28;1677;-67
2021/01/20 02:42:45;;;;;;;;;;;18.90;56.00;;;;;;5094456;28;1627;-66
2021/01/20 02:45:11;;;;;;;;;;;18.90;55.70;;;;;;5075817;28;1901;-67
2021/01/20 02:47:37;;;;;;;;;;;18.90;55.60;;;;;;5076100;28;1272;-67
2021/01/20 02:50:03;;;;;;;;;;;18.90;55.50;;;;;;5076296;28;1661;-67
2021/01/20 02:52:37;;;;;;;;;;;19.00;55.50;;;;;;5075668;28;1423;-67
2021/01/20 02:55:03;;;;;;;;;;;19.10;55.30;;;;;;5089712;22;2140;-69
2021/01/20 02:57:28;;;;;;;;;;;19.20;55.20;;;;;;5050833;28;1260;-68
2021/01/20 02:59:54;;;;;;;;;;;19.30;55.10;;;;;;5067911;28;1127;-68
2021/01/20 03:02:19;;;;;;;;;;;19.40;54.90;;;;;;5076145;28;1132;-68
2021/01/20 03:04:45;;;;;;;;;;;19.50;54.70;;;;;;5073514;28;1385;-69
2021/01/20 03:07:11;;;;;;;;;;;19.50;54.50;;;;;;5074106;28;1895;-69
2021/01/20 03:09:37;;;;;;;;;;;19.60;54.30;;;;;;5074379;28;1259;-68
2021/01/20 03:12:03;;;;;;;;;;;19.70;54.10;;;;;;5072837;28;1342;-68
2021/01/20 03:14:28;;;;;;;;;;;19.70;54.10;;;;;;5067217;28;1196;-68
2021/01/20 03:16:53;;;;;;;;;;;19.70;53.90;;;;;;5055178;28;1414;-68
2021/01/20 03:19:19;;;;;;;;;;;19.80;53.80;;;;;;5073322;28;1256;-68
2021/01/20 03:21:44;;;;;;;;;;;19.80;53.70;;;;;;5072857;28;1322;-68
2021/01/20 03:24:10;;;;;;;;;;;19.80;53.60;;;;;;5070836;28;1343;-68
2021/01/20 03:26:35;;;;;;;;;;;19.90;53.60;;;;;;5072284;28;1890;-68
2021/01/20 03:29:01;;;;;;;;;;;19.90;53.60;;;;;;5055234;28;1048;-68
2021/01/20 03:31:26;;;;;;;;;;;19.90;53.50;;;;;;5073105;28;1320;-68
2021/01/20 03:33:52;;;;;;;;;;;19.90;53.50;;;;;;5073022;28;1309;-68
2021/01/20 03:36:17;;;;;;;;;;;19.90;53.50;;;;;;5072728;28;1468;-68
2021/01/20 03:38:43;;;;;;;;;;;19.90;53.40;;;;;;5038606;28;1246;-68
2021/01/20 03:41:08;;;;;;;;;;;19.90;53.40;;;;;;5072400;28;1319;-67
2021/01/20 03:43:34;;;;;;;;;;;19.90;53.40;;;;;;5072773;28;1096;-69
2021/01/20 03:45:59;;;;;;;;;;;19.90;53.40;;;;;;5072539;28;1906;-68
2021/01/20 03:48:25;;;;;;;;;;;19.90;53.50;;;;;;5072776;28;1306;-68
2021/01/20 03:50:50;;;;;;;;;;;19.90;53.40;;;;;;5072717;28;1312;-68
2021/01/20 03:53:16;;;;;;;;;;;19.90;53.50;;;;;;5054963;28;1343;-68
2021/01/20 03:55:41;;;;;;;;;;;19.90;53.50;;;;;;5072700;28;1340;-68
2021/01/20 03:58:07;;;;;;;;;;;19.90;53.50;;;;;;5072628;28;1206;-68
2021/01/20 04:00:32;;;;;;;;;;;19.90;53.50;;;;;;5072885;28;1351;-67
2021/01/20 04:02:58;;;;;;;;;;;19.90;53.50;;;;;;5072705;28;1280;-68
2021/01/20 04:05:24;;;;;;;;;;;19.90;53.50;;;;;;5070954;28;1906;-68
2021/01/20 04:07:49;;;;;;;;;;;19.90;53.60;;;;;;5072643;28;1295;-69
2021/01/20 04:10:14;;;;;;;;;;;19.90;53.60;;;;;;5072669;28;1256;-67
2021/01/20 04:12:40;;;;;;;;;;;19.90;53.60;;;;;;5072733;28;1190;-68
2021/01/20 04:15:06;;;;;;;;;;;19.80;53.60;;;;;;5072614;28;1291;-68
2021/01/20 04:17:31;;;;;;;;;;;19.80;53.60;;;;;;5055167;28;1395;-68
2021/01/20 04:19:57;;;;;;;;;;;19.80;53.70;;;;;;5072837;28;1296;-68
2021/01/20 04:22:22;;;;;;;;;;;19.80;53.70;;;;;;5073597;28;1302;-68
2021/01/20 04:24:48;;;;;;;;;;;19.80;53.70;;;;;;5073002;28;1347;-67
2021/01/20 04:27:13;;;;;;;;;;;19.80;53.80;;;;;;5073203;28;1894;-68
2021/01/20 04:29:39;;;;;;;;;;;19.80;53.80;;;;;;5073225;28;1318;-67
2021/01/20 04:32:04;;;;;;;;;;;19.80;53.80;;;;;;5072988;28;1401;-68
2021/01/20 04:34:30;;;;;;;;;;;19.80;53.80;;;;;;5071932;28;1309;-68
2021/01/20 04:36:55;;;;;;;;;;;19.80;53.90;;;;;;5072394;28;1398;-68
2021/01/20 04:39:21;;;;;;;;;;;19.70;53.80;;;;;;5072591;28;1325;-67
2021/01/20 04:41:46;;;;;;;;;;;19.80;54.00;;;;;;5072405;28;1436;-68
2021/01/20 04:44:12;;;;;;;;;;;19.70;53.90;;;;;;5054299;28;1116;-68
2021/01/20 04:46:37;;;;;;;;;;;19.70;53.90;;;;;;5072114;28;1957;-68
2021/01/20 04:49:03;;;;;;;;;;;19.70;54.00;;;;;;5054429;28;1309;-68
2021/01/20 04:51:28;;;;;;;;;;;19.70;54.00;;;;;;5054278;28;1711;-68
2021/01/20 04:53:57;;;;;;;;;;;19.70;54.00;;;;;;5057764;28;1407;-68
2021/01/20 04:56:23;;;;;;;;;;;19.70;54.10;;;;;;5074699;28;1306;-68
2021/01/20 04:58:50;;;;;;;;;;;19.70;54.10;;;;;;5074828;28;1260;-68
2021/01/20 05:01:16;;;;;;;;;;;19.70;54.00;;;;;;5076036;28;1315;-68
2021/01/20 05:03:41;;;;;;;;;;;19.70;54.10;;;;;;5074215;28;1335;-67
2021/01/20 05:06:09;;;;;;;;;;;19.70;54.10;;;;;;5075766;28;1906;-68
2021/01/20 05:08:34;;;;;;;;;;;19.70;54.10;;;;;;5074643;28;1330;-68
2021/01/20 05:10:59;;;;;;;;;;;19.70;54.20;;;;;;5075773;28;1349;-66
2021/01/20 05:13:26;;;;;;;;;;;19.70;54.20;;;;;;5070498;28;1326;-68
2021/01/20 05:15:51;;;;;;;;;;;19.60;54.20;;;;;;5040898;28;1344;-68
2021/01/20 05:18:17;;;;;;;;;;;19.60;54.20;;;;;;5057379;28;1337;-68
2021/01/20 05:20:43;;;;;;;;;;;19.60;54.20;;;;;;5075866;28;1115;-67
2021/01/20 05:23:08;;;;;;;;;;;19.60;54.30;;;;;;5075433;28;1502;-68
2021/01/20 05:25:34;;;;;;;;;;;19.60;54.30;;;;;;5057326;28;1898;-67
2021/01/20 05:28:18;;;;;;;;;;;19.60;54.40;;;;;;5075204;28;1227;-68
2021/01/20 05:30:44;;;;;;;;;;;19.60;54.30;;;;;;5075627;28;1348;-68
2021/01/20 05:33:09;;;;;;;;;;;19.60;54.30;;;;;;5075302;28;1299;-67
2021/01/20 05:35:35;;;;;;;;;;;19.60;54.40;;;;;;5057596;28;1348;-68
2021/01/20 05:38:00;;;;;;;;;;;19.60;54.40;;;;;;5075133;28;1342;-68
2021/01/20 05:40:26;;;;;;;;;;;19.60;54.40;;;;;;5057357;28;1280;-68
2021/01/20 05:42:52;;;;;;;;;;;19.60;54.50;;;;;;5075324;28;1345;-69
2021/01/20 05:45:18;;;;;;;;;;;19.60;54.50;;;;;;5074706;28;1953;-68
2021/01/20 05:47:59;;;;;;;;;;;19.50;54.50;;;;;;5074934;28;1382;-68
2021/01/20 05:50:25;;;;;;;;;;;19.50;54.50;;;;;;5074946;28;1382;-68
2021/01/20 05:53:09;;;;;;;;;;;19.50;54.50;;;;;;5075148;28;1309;-67
2021/01/20 05:55:35;;;;;;;;;;;19.50;54.60;;;;;;5074684;28;1359;-68
2021/01/20 05:58:01;;;;;;;;;;;19.50;54.60;;;;;;5046451;28;1333;-67
2021/01/20 06:00:27;;;;;;;;;;;19.50;54.60;;;;;;5072025;28;1402;-67
2021/01/20 06:02:52;;;;;;;;;;;19.50;54.60;;;;;;5075041;28;1310;-67
2021/01/20 06:05:18;;;;;;;;;;;19.50;54.60;;;;;;5073905;28;1898;-68
2021/01/20 06:07:43;;;;;;;;;;;19.50;54.70;;;;;;5056730;28;1312;-68
2021/01/20 06:10:09;;;;;;;;;;;19.50;54.70;;;;;;5074779;28;1067;-67
2021/01/20 06:12:34;;;;;;;;;;;19.50;54.70;;;;;;5074323;28;1318;-66
2021/01/20 06:15:00;;;;;;;;;;;19.50;54.70;;;;;;5074431;28;1373;-67
2021/01/20 06:17:25;;;;;;;;;;;19.50;54.80;;;;;;5074722;28;1304;-68
2021/01/20 06:19:51;;;;;;;;;;;19.50;54.70;;;;;;5074597;28;1326;-67
2021/01/20 06:22:17;;;;;;;;;;;19.50;54.80;;;;;;5075450;28;1289;-68
2021/01/20 06:24:49;;;;;;;;;;;19.50;54.80;;;;;;5074919;28;1310;-67
2021/01/20 06:27:25;;;;;;;;;;;19.50;54.80;;;;;;5074866;28;1898;-68
2021/01/20 06:29:52;;;;;;;;;;;19.50;54.90;;;;;;5057384;28;1332;-66
2021/01/20 06:32:19;;;;;;;;;;;19.50;55.40;;;;;;5056947;28;1356;-67
2021/01/20 06:34:48;;;;;;;;;;;19.40;54.80;;;;;;5056206;28;1344;-68
2021/01/20 06:37:32;;;;;;;;;;;19.40;54.90;;;;;;5074065;28;1303;-68
2021/01/20 06:39:58;;;;;;;;;;;19.40;54.90;;;;;;5074064;28;1295;-67
2021/01/20 06:42:30;;;;;;;;;;;19.50;55.00;;;;;;5074107;28;1333;-67
2021/01/20 06:45:11;;;;;;;;;;;19.40;54.90;;;;;;5073654;28;1367;-67
2021/01/20 06:47:55;;;;;;;;;;;19.40;54.90;;;;;;5073876;28;1341;-68
2021/01/20 06:50:21;;;;;;;;;;;19.40;54.90;;;;;;5073914;28;1317;-68
2021/01/20 06:52:59;;;;;;;;;;;19.40;55.00;;;;;;5074679;28;1290;-68
2021/01/20 06:55:45;;;;;;;;;;;19.40;55.00;;;;;;5072558;28;1384;-68
2021/01/20 06:58:20;;;;;;;;;;;19.40;55.00;;;;;;5072963;28;1099;-67
2021/01/20 07:01:00;;;;;;;;;;;19.40;55.00;;;;;;5073473;28;1393;-67
2021/01/20 07:03:54;;;;;;;;;;;19.40;55.00;;;;;;5073386;28;1368;-67
2021/01/20 07:06:38;;;;;;;;;;;19.40;55.00;;;;;;5056379;28;1965;-67
2021/01/20 07:09:14;;;;;;;;;;;19.40;55.10;;;;;;5073460;28;1040;-68
2021/01/20 07:11:59;;;;;;;;;;;19.40;55.10;;;;;;5056187;28;1307;-68
2021/01/20 07:14:28;;;;;;;;;;;19.40;55.10;;;;;;5073250;28;1194;-68
2021/01/20 07:16:54;;;;;;;;;;;19.40;55.70;;;;;;5072259;28;1413;-68
2021/01/20 07:19:19;;;;;;;;;;;19.40;55.10;;;;;;5055447;28;1247;-68
2021/01/20 07:21:45;;;;;;;;;;;19.40;55.10;;;;;;5073217;28;1384;-67
2021/01/20 07:24:10;;;;;;;;;;;19.40;55.10;;;;;;5055225;28;1644;-67
2021/01/20 07:26:36;;;;;;;;;;;19.40;55.10;;;;;;5055077;28;1971;-68
2021/01/20 07:29:12;;;;;;;;;;;19.30;55.10;;;;;;5055386;28;1307;-68
2021/01/20 07:31:42;;;;;;;;;;;19.30;55.10;;;;;;5055152;28;1374;-67
2021/01/20 07:34:07;;;;;;;;;;;19.30;55.10;;;;;;5055085;28;1355;-67
2021/01/20 07:36:33;;;;;;;;;;;19.30;55.10;;;;;;5073034;28;1299;-68
2021/01/20 07:38:58;;;;;;;;;;;19.30;55.10;;;;;;5038426;28;1418;-67
2021/01/20 07:41:27;;;;;;;;;;;19.30;55.10;;;;;;5073266;28;1393;-67
2021/01/20 07:44:12;;;;;;;;;;;19.30;55.10;;;;;;5072917;28;1278;-67
2021/01/20 07:46:38;;;;;;;;;;;19.30;55.10;;;;;;5072663;28;1980;-67
2021/01/20 07:49:10;;;;;;;;;;;19.30;55.10;;;;;;5060683;28;1934;-65
2021/01/20 07:51:35;;;;;;;;;;;19.30;55.20;;;;;;5063961;28;944;-66
2021/01/20 07:54:01;;;;;;;;;;;19.30;55.10;;;;;;5072611;28;1277;-66
2021/01/20 07:56:27;;;;;;;;;;;19.30;55.20;;;;;;5072560;28;1300;-66
2021/01/20 07:58:53;;;;;;;;;;;19.30;55.10;;;;;;5072525;28;1194;-67
2021/01/20 08:01:25;;;;;;;;;;;19.30;55.20;;;;;;5071762;28;1316;-69
2021/01/20 08:03:51;;;;;;;;;;;19.30;55.20;;;;;;5072635;28;1333;-67
2021/01/20 08:06:16;;;;;;;;;;;19.30;55.20;;;;;;5072892;28;1963;-69
2021/01/20 08:08:51;;;;;;;;;;;19.30;55.20;;;;;;5071703;28;1302;-68
2021/01/20 08:11:17;;;;;;;;;;;19.30;55.20;;;;;;5072786;28;1275;-68
2021/01/20 08:13:42;;;;;;;;;;;19.30;55.20;;;;;;5067424;28;1405;-68
2021/01/20 08:16:08;;;;;;;;;;;19.30;55.20;;;;;;5055264;28;1420;-69
2021/01/20 08:18:33;;;;;;;;;;;19.30;55.20;;;;;;5071502;28;1333;-68
2021/01/20 08:20:59;;;;;;;;;;;19.30;55.20;;;;;;5071157;28;1311;-67
2021/01/20 08:23:40;;;;;;;;;;;19.30;55.20;;;;;;5071277;28;1393;-68
2021/01/20 08:26:06;;;;;;;;;;;19.30;55.20;;;;;;5072135;28;1902;-68
2021/01/20 08:28:31;;;;;;;;;;;19.30;55.20;;;;;;5075722;28;1060;-67
2021/01/20 08:30:57;;;;;;;;;;;19.30;55.20;;;;;;5075299;28;1343;-68
2021/01/20 08:33:22;;;;;;;;;;;19.30;55.20;;;;;;5075195;28;1323;-66
2021/01/20 08:35:55;;;;;;;;;;;19.30;55.20;;;;;;5076231;28;1384;-68
2021/01/20 08:38:24;;;;;;;;;;;19.30;55.20;;;;;;5076239;28;1331;-68
2021/01/20 08:41:07;;;;;;;;;;;19.30;55.20;;;;;;5076655;28;1218;-69
2021/01/20 08:43:33;;;;;;;;;;;19.30;55.20;;;;;;5075742;28;1339;-69
2021/01/20 08:46:12;;;;;;;;;;;19.30;55.20;;;;;;5076518;28;1910;-68
2021/01/20 08:48:37;;;;;;;;;;;19.30;55.20;;;;;;5075226;28;1344;-69
2021/01/20 08:51:03;;;;;;;;;;;19.30;55.20;;;;;;5075307;28;1375;-65
2021/01/20 08:53:28;;;;;;;;;;;19.30;55.20;;;;;;5076202;28;1309;-65
2021/01/20 08:55:54;;;;;;;;;;;19.30;55.20;;;;;;5093205;22;3911;-67
2021/01/20 08:58:26;;;;;;;;;;;19.30;55.20;;;;;;5091310;28;976;-67
2021/01/20 09:00:59;;;;;;;;;;;19.30;55.20;;;;;;5095216;28;1695;-67
2021/01/20 09:03:28;;;;;;;;;;;19.30;55.30;;;;;;5094779;28;1451;-67
2021/01/20 09:05:54;;;;;;;;;;;19.30;55.30;;;;;;5096036;28;1987;-68
2021/01/20 09:08:21;;;;;;;;;;;19.30;55.30;;;;;;5095141;28;1423;-67
2021/01/20 09:10:46;;;;;;;;;;;19.30;55.30;;;;;;5095187;28;1719;-67
2021/01/20 09:13:12;;;;;;;;;;;19.30;55.30;;;;;;5091017;28;1687;-67
2021/01/20 09:15:37;;;;;;;;;;;19.30;55.30;;;;;;5094698;28;1470;-67
2021/01/20 09:18:06;;;;;;;;;;;19.30;55.30;;;;;;5094680;28;1359;-68
2021/01/20 09:20:32;;;;;;;;;;;19.30;55.30;;;;;;5096068;28;1439;-68
2021/01/20 09:22:57;;;;;;;;;;;19.30;55.30;;;;;;5075842;28;1793;-68
2021/01/20 09:25:23;;;;;;;;;;;19.30;55.30;;;;;;5095599;28;1926;-68
2021/01/20 09:27:48;;;;;;;;;;;19.30;55.30;;;;;;5095585;28;1600;-68
2021/01/20 09:30:14;;;;;;;;;;;19.30;55.30;;;;;;5089304;28;1594;-68
2021/01/20 09:32:40;;;;;;;;;;;19.30;55.30;;;;;;5095603;28;1710;-67
2021/01/20 09:35:07;;;;;;;;;;;19.30;55.30;;;;;;5094332;28;1414;-68
2021/01/20 09:37:32;;;;;;;;;;;19.30;55.30;;;;;;5095561;28;1730;-68
2021/01/20 09:39:57;;;;;;;;;;;19.30;55.30;;;;;;5094555;28;1285;-68
2021/01/20 09:42:23;;;;;;;;;;;19.30;55.30;;;;;;5095579;28;1700;-68
2021/01/20 09:44:48;;;;;;;;;;;19.30;55.30;;;;;;5095206;28;1330;-68
2021/01/20 09:47:14;;;;;;;;;;;19.30;55.30;;;;;;5084131;28;2915;-68
2021/01/20 09:49:42;;;;;;;;;;;19.30;55.30;;;;;;5083668;28;1481;-68
2021/01/20 09:52:08;;;;;;;;;;;19.30;55.30;;;;;;5078887;28;1515;-69
2021/01/20 09:54:33;;;;;;;;;;;19.30;55.30;;;;;;5095138;28;1272;-68
2021/01/20 09:56:59;;;;;;;;;;;19.30;55.30;;;;;;5094064;28;1266;-68
2021/01/20 09:59:24;;;;;;;;;;;19.30;55.30;;;;;;5095148;28;1269;-69
2021/01/20 10:01:50;;;;;;;;;;;19.30;55.30;;;;;;5094470;28;1015;-68
2021/01/20 10:04:15;;;;;;;;;;;19.30;55.40;;;;;;5077027;28;1367;-66
2021/01/20 10:06:40;;;;;;;;;;;19.30;55.30;;;;;;5085315;28;1976;-67
2021/01/20 10:09:06;;;;;;;;;;;19.30;55.20;;;;;;5084636;28;959;-68
2021/01/20 10:11:31;;;;;;;;;;;19.30;55.80;;;;;;5087641;28;1278;-68
2021/01/20 10:13:57;;;;;;;;;;;19.40;55.20;;;;;;5080752;28;1301;-67
2021/01/20 10:16:22;;;;;;;;;;;19.40;55.00;;;;;;5087110;28;1282;-68
2021/01/20 10:18:49;;;;;;;;;;;19.50;54.90;;;;;;5093408;28;1278;-69
2021/01/20 10:21:15;;;;;;;;;;;19.50;54.60;;;;;;5093453;28;1351;-68
2021/01/20 10:23:40;;;;;;;;;;;19.60;54.50;;;;;;5088273;28;2512;-69
2021/01/20 10:26:06;;;;;;;;;;;19.70;54.40;;;;;;5092835;28;1973;-69
2021/01/20 10:28:31;;;;;;;;;;;19.70;54.30;;;;;;5092874;28;1270;-69
2021/01/20 10:30:57;;;;;;;;;;;19.70;54.30;;;;;;5092693;28;1110;-69
2021/01/20 10:33:22;;;;;;;;;;;19.70;54.20;;;;;;5093359;28;1419;-69
2021/01/20 10:35:48;;;;;;;;;;;19.80;54.10;;;;;;5093215;28;1238;-69
2021/01/20 10:38:13;;;;;;;;;;;19.90;54.10;;;;;;5093297;28;1339;-69
2021/01/20 10:40:38;;;;;;;;;;;19.90;54.00;;;;;;5093264;28;1296;-69
2021/01/20 10:43:04;;;;;;;;;;;20.00;53.90;;;;;;5093239;28;1238;-68
2021/01/20 10:45:29;;;;;;;;;;;20.00;53.70;;;;;;5092753;28;1906;-69
2021/01/20 10:47:55;;;;;;;;;;;20.10;53.60;;;;;;5093092;28;987;-68
2021/01/20 10:50:20;;;;;;;;;;;20.20;53.50;;;;;;5092972;28;1215;-68
2021/01/20 10:52:46;;;;;;;;;;;20.20;53.40;;;;;;5092890;28;1247;-69
2021/01/20 10:55:14;;;;;;;;;;;20.30;53.20;;;;;;5092794;28;1331;-69
2021/01/20 10:57:39;;;;;;;;;;;20.40;53.10;;;;;;5092868;28;1153;-69
2021/01/20 11:00:05;;;;;;;;;;;20.40;53.00;;;;;;5092782;28;1280;-68
2021/01/20 11:02:30;;;;;;;;;;;20.50;52.90;;;;;;5087273;28;1122;-68
2021/01/20 11:04:56;;;;;;;;;;;20.50;52.80;;;;;;5082357;28;1271;-69
2021/01/20 11:07:21;;;;;;;;;;;20.50;52.70;;;;;;5092714;28;1959;-69
2021/01/20 11:09:48;;;;;;;;;;;20.60;52.70;;;;;;5090459;28;1107;-69
2021/01/20 11:12:13;;;;;;;;;;;20.60;52.60;;;;;;5087399;28;1259;-69
2021/01/20 11:14:39;;;;;;;;;;;20.60;52.60;;;;;;5085746;28;1082;-69
2021/01/20 11:17:04;;;;;;;;;;;20.60;52.50;;;;;;5091184;28;1310;-69
2021/01/20 11:19:30;;;;;;;;;;;20.60;52.50;;;;;;5090576;28;1804;-69
2021/01/20 11:21:56;;;;;;;;;;;20.60;52.60;;;;;;5078145;28;2068;-69
2021/01/20 11:24:22;;;;;;;;;;;20.60;52.50;;;;;;5077567;28;1115;-69
2021/01/20 11:26:47;;;;;;;;;;;20.60;52.50;;;;;;5078622;28;1890;-69
2021/01/20 11:29:13;;;;;;;;;;;20.70;52.60;;;;;;5090943;28;1256;-69
2021/01/20 11:31:39;;;;;;;;;;;20.70;52.50;;;;;;5092622;28;1268;-69
2021/01/20 11:34:04;;;;;;;;;;;20.70;52.50;;;;;;5092339;28;1261;-69
2021/01/20 11:36:30;;;;;;;;;;;20.70;52.50;;;;;;5092244;28;1330;-69
2021/01/20 11:38:56;;;;;;;;;;;20.80;52.40;;;;;;5092327;28;1129;-69
2021/01/20 11:41:21;;;;;;;;;;;20.80;52.40;;;;;;5092335;28;1244;-69
2021/01/20 11:43:47;;;;;;;;;;;20.80;52.30;;;;;;5091993;28;1345;-69
2021/01/20 11:46:13;;;;;;;;;;;20.80;52.30;;;;;;5091744;28;1959;-69
2021/01/20 11:48:39;;;;;;;;;;;20.90;52.30;;;;;;5092233;28;1258;-69
2021/01/20 11:51:04;;;;;;;;;;;20.90;52.20;;;;;;5092046;28;1113;-69
2021/01/20 11:53:30;;;;;;;;;;;20.90;52.20;;;;;;5091924;28;1296;-69
2021/01/20 11:55:55;;;;;;;;;;;20.90;51.80;;;;;;5091550;28;1289;-69
2021/01/20 11:58:21;;;;;;;;;;;20.90;51.90;;;;;;5091591;28;1343;-69
2021/01/20 12:00:46;;;;;;;;;;;20.90;51.90;;;;;;5090641;28;1305;-69
2021/01/20 12:03:12;;;;;;;;;;;21.00;51.90;;;;;;5091368;28;1328;-69
2021/01/20 12:05:37;;;;;;;;;;;21.00;51.90;;;;;;5091562;28;1964;-69
2021/01/20 12:08:03;;;;;;;;;;;21.00;51.90;;;;;;5091460;28;1268;-69
2021/01/20 12:10:28;;;;;;;;;;;21.00;51.90;;;;;;5092025;28;938;-69
2021/01/20 12:12:57;;;;;;;;;;;21.00;51.90;;;;;;5091472;28;984;-69
2021/01/20 12:15:22;;;;;;;;;;;21.00;51.90;;;;;;5091492;28;1345;-68
2021/01/20 12:17:48;;;;;;;;;;;21.10;51.90;;;;;;5086659;28;2101;-69
2021/01/20 12:20:14;;;;;;;;;;;21.00;51.90;;;;;;5091499;28;1251;-68
2021/01/20 12:22:39;;;;;;;;;;;21.00;51.90;;;;;;5091755;28;1086;-69
2021/01/20 12:25:05;;;;;;;;;;;21.00;51.90;;;;;;5088335;28;1361;-69
2021/01/20 12:27:31;;;;;;;;;;;21.00;52.00;;;;;;5091216;28;1968;-69
2021/01/20 12:29:57;;;;;;;;;;;21.00;52.00;;;;;;5092004;28;1317;-69
2021/01/20 12:32:22;;;;;;;;;;;21.00;52.00;;;;;;5092024;28;1123;-69
2021/01/20 12:34:47;;;;;;;;;;;21.00;52.10;;;;;;5092395;28;1289;-70
2021/01/20 12:37:13;;;;;;;;;;;21.00;52.20;;;;;;5092318;28;1306;-69
2021/01/20 12:39:38;;;;;;;;;;;21.00;52.20;;;;;;5091086;28;1304;-70
2021/01/20 12:42:05;;;;;;;;;;;20.90;52.20;;;;;;5092387;28;1086;-69
2021/01/20 12:44:30;;;;;;;;;;;20.90;52.20;;;;;;5092368;28;1189;-69
2021/01/20 12:46:55;;;;;;;;;;;20.90;52.30;;;;;;5088089;28;1967;-71
2021/01/20 12:49:21;;;;;;;;;;;20.90;52.30;;;;;;5091228;28;1089;-68
2021/01/20 12:51:47;;;;;;;;;;;20.90;52.40;;;;;;5090304;28;1184;-70
2021/01/20 12:54:12;;;;;;;;;;;20.80;52.40;;;;;;5091234;28;1237;-69
2021/01/20 12:56:38;;;;;;;;;;;20.80;52.40;;;;;;5091078;28;1241;-70
2021/01/20 12:59:03;;;;;;;;;;;20.80;52.50;;;;;;5091264;28;1133;-69
2021/01/20 13:01:29;;;;;;;;;;;20.80;52.50;;;;;;5091236;28;1270;-69
2021/01/20 13:03:54;;;;;;;;;;;20.80;52.60;;;;;;5091238;28;1288;-69
2021/01/20 13:06:20;;;;;;;;;;;20.80;52.70;;;;;;5090997;28;1918;-69
2021/01/20 13:08:45;;;;;;;;;;;20.80;52.70;;;;;;5091505;28;1288;-69
2021/01/20 13:11:11;;;;;;;;;;;20.70;52.70;;;;;;5089833;28;1134;-69
2021/01/20 13:13:36;;;;;;;;;;;20.70;52.80;;;;;;5091352;28;1256;-68
2021/01/20 13:16:02;;;;;;;;;;;20.70;52.80;;;;;;5094697;28;1287;-68
2021/01/20 13:18:27;;;;;;;;;;;20.70;52.80;;;;;;5093642;28;1374;-69
2021/01/20 13:20:53;;;;;;;;;;;20.70;52.90;;;;;;5094900;28;1334;-69
2021/01/20 13:23:18;;;;;;;;;;;20.60;52.90;;;;;;5094665;28;1249;-68
2021/01/20 13:25:44;;;;;;;;;;;20.60;52.90;;;;;;5094355;28;1964;-69
2021/01/20 13:28:09;;;;;;;;;;;20.60;52.90;;;;;;5094387;28;1301;-68
2021/01/20 13:30:35;;;;;;;;;;;20.60;53.00;;;;;;5094662;28;1237;-67
2021/01/20 13:33:00;;;;;;;;;;;20.60;53.10;;;;;;5094660;28;1297;-68
2021/01/20 13:35:26;;;;;;;;;;;20.60;53.10;;;;;;5093034;28;1353;-68
2021/01/20 13:37:51;;;;;;;;;;;20.50;53.10;;;;;;5093282;28;1250;-68
2021/01/20 13:40:17;;;;;;;;;;;20.50;53.10;;;;;;5094150;28;1261;-67
2021/01/20 13:42:42;;;;;;;;;;;20.50;53.20;;;;;;5080849;28;1055;-68
2021/01/20 13:45:08;;;;;;;;;;;20.50;53.20;;;;;;5094243;28;1280;-68
2021/01/20 13:47:34;;;;;;;;;;;20.50;53.40;;;;;;5092748;28;1886;-68
2021/01/20 13:49:59;;;;;;;;;;;20.50;53.30;;;;;;5094431;28;1122;-67
2021/01/20 13:52:25;;;;;;;;;;;20.50;53.30;;;;;;5094217;28;1125;-68
2021/01/20 13:54:50;;;;;;;;;;;20.40;53.30;;;;;;5094042;28;1285;-68
2021/01/20 13:57:15;;;;;;;;;;;20.40;53.40;;;;;;5093525;28;1247;-68
2021/01/20 13:59:41;;;;;;;;;;;20.40;53.40;;;;;;5094286;28;1309;-68
2021/01/20 14:02:06;;;;;;;;;;;20.40;53.50;;;;;;5093950;28;1054;-68
2021/01/20 14:04:32;;;;;;;;;;;20.40;53.50;;;;;;5094039;28;1337;-68
2021/01/20 14:06:58;;;;;;;;;;;20.40;53.60;;;;;;5093494;28;1910;-67
2021/01/20 14:09:24;;;;;;;;;;;20.40;53.60;;;;;;5092423;28;1304;-67
2021/01/20 14:11:49;;;;;;;;;;;20.40;53.60;;;;;;5093705;28;1348;-68
2021/01/20 14:14:15;;;;;;;;;;;20.40;53.70;;;;;;5093591;28;1066;-67
2021/01/20 14:16:40;;;;;;;;;;;20.30;53.70;;;;;;5093646;28;1278;-68
2021/01/20 14:19:06;;;;;;;;;;;20.30;53.70;;;;;;5092484;28;1312;-68
2021/01/20 14:21:31;;;;;;;;;;;20.30;53.70;;;;;;5093423;28;1301;-68
2021/01/20 14:23:57;;;;;;;;;;;20.30;53.80;;;;;;5093573;28;1379;-67
2021/01/20 14:26:22;;;;;;;;;;;20.30;53.80;;;;;;5092593;28;1898;-67
2021/01/20 14:28:48;;;;;;;;;;;20.20;53.80;;;;;;5093609;28;1239;-68